sensor_id;sensor_type;location;lat;lon;timestamp;temperature;humidity
25914;DHT22;13718;50.922;5.346;2023-06-22T00:00:53;22.30;96.30
25914;DHT22;13718;50.922;5.346;2023-06-22T00:03:20;22.30;96.30
25914;DHT22;13718;50.922;5.346;2023-06-22T00:05:47;22.20;96.50
25914;DHT22;13718;50.922;5.346;2023-06-22T00:08:13;22.10;96.60
25914;DHT22;13718;50.922;5.346;2023-06-22T00:10:38;22.10;96.70
25914;DHT22;13718;50.922;5.346;2023-06-22T00:13:05;22.00;96.70
25914;DHT22;13718;50.922;5.346;2023-06-22T00:15:31;21.90;96.60
25914;DHT22;13718;50.922;5.346;2023-06-22T00:17:56;21.90;96.80
25914;DHT22;13718;50.922;5.346;2023-06-22T00:20:23;21.90;97.10
25914;DHT22;13718;50.922;5.346;2023-06-22T00:22:49;22.00;96.80
25914;DHT22;13718;50.922;5.346;2023-06-22T00:25:15;22.00;96.80
25914;DHT22;13718;50.922;5.346;2023-06-22T00:27:40;22.00;96.80
25914;DHT22;13718;50.922;5.346;2023-06-22T00:30:07;22.00;96.80
25914;DHT22;13718;50.922;5.346;2023-06-22T00:32:32;22.00;96.90
25914;DHT22;13718;50.922;5.346;2023-06-22T00:34:58;22.00;96.80
25914;DHT22;13718;50.922;5.346;2023-06-22T00:37:23;22.10;96.90
25914;DHT22;13718;50.922;5.346;2023-06-22T00:39:51;22.00;96.70
25914;DHT22;13718;50.922;5.346;2023-06-22T00:42:17;22.00;96.80
25914;DHT22;13718;50.922;5.346;2023-06-22T00:44:43;22.00;96.70
25914;DHT22;13718;50.922;5.346;2023-06-22T00:47:11;22.10;96.60
25914;DHT22;13718;50.922;5.346;2023-06-22T00:49:38;22.00;96.70
25914;DHT22;13718;50.922;5.346;2023-06-22T00:52:05;22.10;96.50
25914;DHT22;13718;50.922;5.346;2023-06-22T00:54:35;22.00;96.30
25914;DHT22;13718;50.922;5.346;2023-06-22T00:57:01;22.00;96.20
25914;DHT22;13718;50.922;5.346;2023-06-22T00:59:27;22.00;96.30
25914;DHT22;13718;50.922;5.346;2023-06-22T01:01:53;22.10;96.00
25914;DHT22;13718;50.922;5.346;2023-06-22T01:04:19;22.20;96.10
25914;DHT22;13718;50.922;5.346;2023-06-22T01:06:54;22.20;96.10
25914;DHT22;13718;50.922;5.346;2023-06-22T01:09:28;22.10;96.10
25914;DHT22;13718;50.922;5.346;2023-06-22T01:12:01;22.10;96.20
25914;DHT22;13718;50.922;5.346;2023-06-22T01:14:55;22.10;96.10
25914;DHT22;13718;50.922;5.346;2023-06-22T01:17:23;22.00;96.20
25914;DHT22;13718;50.922;5.346;2023-06-22T01:19:51;22.00;96.30
25914;DHT22;13718;50.922;5.346;2023-06-22T01:22:30;22.00;96.80
25914;DHT22;13718;50.922;5.346;2023-06-22T01:25:19;22.00;96.40
25914;DHT22;13718;50.922;5.346;2023-06-22T01:30:43;22.00;96.60
25914;DHT22;13718;50.922;5.346;2023-06-22T01:33:11;21.80;96.70
25914;DHT22;13718;50.922;5.346;2023-06-22T01:35:38;21.80;96.80
25914;DHT22;13718;50.922;5.346;2023-06-22T01:38:04;21.80;97.00
25914;DHT22;13718;50.922;5.346;2023-06-22T01:40:32;21.70;97.10
25914;DHT22;13718;50.922;5.346;2023-06-22T01:43:00;21.70;97.20
25914;DHT22;13718;50.922;5.346;2023-06-22T01:45:27;21.70;97.30
25914;DHT22;13718;50.922;5.346;2023-06-22T01:47:53;21.70;97.40
25914;DHT22;13718;50.922;5.346;2023-06-22T01:50:20;21.70;97.70
25914;DHT22;13718;50.922;5.346;2023-06-22T01:52:46;21.60;97.80
25914;DHT22;13718;50.922;5.346;2023-06-22T01:55:12;21.60;97.80
25914;DHT22;13718;50.922;5.346;2023-06-22T01:57:37;21.60;97.90
25914;DHT22;13718;50.922;5.346;2023-06-22T02:00:04;21.60;98.20
25914;DHT22;13718;50.922;5.346;2023-06-22T02:02:52;21.60;98.20
25914;DHT22;13718;50.922;5.346;2023-06-22T02:05:19;21.50;98.40
25914;DHT22;13718;50.922;5.346;2023-06-22T02:07:52;21.50;98.50
25914;DHT22;13718;50.922;5.346;2023-06-22T02:10:21;21.60;98.60
25914;DHT22;13718;50.922;5.346;2023-06-22T02:12:48;21.60;98.80
25914;DHT22;13718;50.922;5.346;2023-06-22T02:15:15;21.70;98.90
25914;DHT22;13718;50.922;5.346;2023-06-22T02:17:42;21.60;99.00
25914;DHT22;13718;50.922;5.346;2023-06-22T02:20:13;21.70;99.00
25914;DHT22;13718;50.922;5.346;2023-06-22T02:22:38;21.70;99.10
25914;DHT22;13718;50.922;5.346;2023-06-22T02:25:04;21.70;99.30
25914;DHT22;13718;50.922;5.346;2023-06-22T02:27:30;21.70;99.40
25914;DHT22;13718;50.922;5.346;2023-06-22T02:29:56;21.80;99.60
25914;DHT22;13718;50.922;5.346;2023-06-22T02:32:22;21.70;99.80
25914;DHT22;13718;50.922;5.346;2023-06-22T02:34:47;21.70;99.90
25914;DHT22;13718;50.922;5.346;2023-06-22T02:37:14;21.70;99.90
25914;DHT22;13718;50.922;5.346;2023-06-22T02:39:40;21.80;99.90
25914;DHT22;13718;50.922;5.346;2023-06-22T02:42:06;21.70;99.90
25914;DHT22;13718;50.922;5.346;2023-06-22T02:44:31;21.70;99.90
25914;DHT22;13718;50.922;5.346;2023-06-22T02:46:57;21.70;99.90
25914;DHT22;13718;50.922;5.346;2023-06-22T02:49:23;21.60;99.90
25914;DHT22;13718;50.922;5.346;2023-06-22T02:51:49;21.50;99.90
25914;DHT22;13718;50.922;5.346;2023-06-22T02:54:15;21.50;99.90
25914;DHT22;13718;50.922;5.346;2023-06-22T02:56:42;21.40;99.90
25914;DHT22;13718;50.922;5.346;2023-06-22T02:59:09;21.30;99.90
25914;DHT22;13718;50.922;5.346;2023-06-22T03:01:36;21.20;99.90
25914;DHT22;13718;50.922;5.346;2023-06-22T03:04:06;21.20;99.90
25914;DHT22;13718;50.922;5.346;2023-06-22T03:06:32;21.20;99.90
25914;DHT22;13718;50.922;5.346;2023-06-22T03:09:02;21.10;99.90
25914;DHT22;13718;50.922;5.346;2023-06-22T03:11:35;21.10;99.90
25914;DHT22;13718;50.922;5.346;2023-06-22T03:14:01;21.10;99.90
25914;DHT22;13718;50.922;5.346;2023-06-22T03:16:26;21.00;99.90
25914;DHT22;13718;50.922;5.346;2023-06-22T03:18:52;20.90;99.90
25914;DHT22;13718;50.922;5.346;2023-06-22T03:21:22;20.90;99.90
25914;DHT22;13718;50.922;5.346;2023-06-22T03:23:48;20.90;99.90
25914;DHT22;13718;50.922;5.346;2023-06-22T03:26:17;20.90;99.90
25914;DHT22;13718;50.922;5.346;2023-06-22T03:28:43;20.90;99.90
25914;DHT22;13718;50.922;5.346;2023-06-22T03:31:08;20.90;99.90
25914;DHT22;13718;50.922;5.346;2023-06-22T03:33:34;20.90;99.90
25914;DHT22;13718;50.922;5.346;2023-06-22T03:36:00;20.90;99.90
25914;DHT22;13718;50.922;5.346;2023-06-22T03:38:25;20.90;99.90
25914;DHT22;13718;50.922;5.346;2023-06-22T03:40:51;20.90;99.90
25914;DHT22;13718;50.922;5.346;2023-06-22T03:43:17;20.90;99.90
25914;DHT22;13718;50.922;5.346;2023-06-22T03:45:42;21.00;99.90
25914;DHT22;13718;50.922;5.346;2023-06-22T03:48:11;21.00;99.90
25914;DHT22;13718;50.922;5.346;2023-06-22T03:50:36;21.00;99.90
25914;DHT22;13718;50.922;5.346;2023-06-22T03:53:02;21.00;99.90
25914;DHT22;13718;50.922;5.346;2023-06-22T03:55:27;21.10;99.90
25914;DHT22;13718;50.922;5.346;2023-06-22T03:57:53;21.10;99.90
25914;DHT22;13718;50.922;5.346;2023-06-22T04:00:22;21.20;99.90
25914;DHT22;13718;50.922;5.346;2023-06-22T04:02:48;21.20;99.90
25914;DHT22;13718;50.922;5.346;2023-06-22T04:05:14;21.30;99.90
25914;DHT22;13718;50.922;5.346;2023-06-22T04:07:39;21.50;99.90
25914;DHT22;13718;50.922;5.346;2023-06-22T04:10:05;21.70;99.90
25914;DHT22;13718;50.922;5.346;2023-06-22T04:12:31;21.80;99.90
25914;DHT22;13718;50.922;5.346;2023-06-22T04:14:56;21.70;99.90
25914;DHT22;13718;50.922;5.346;2023-06-22T04:17:22;21.60;99.90
25914;DHT22;13718;50.922;5.346;2023-06-22T04:19:50;21.60;99.90
25914;DHT22;13718;50.922;5.346;2023-06-22T04:22:16;21.60;99.90
25914;DHT22;13718;50.922;5.346;2023-06-22T04:24:41;21.60;99.90
25914;DHT22;13718;50.922;5.346;2023-06-22T04:27:07;21.60;99.90
25914;DHT22;13718;50.922;5.346;2023-06-22T04:29:32;21.80;99.90
25914;DHT22;13718;50.922;5.346;2023-06-22T04:31:58;21.80;99.90
25914;DHT22;13718;50.922;5.346;2023-06-22T04:34:28;21.70;99.90
25914;DHT22;13718;50.922;5.346;2023-06-22T04:36:54;21.70;99.90
25914;DHT22;13718;50.922;5.346;2023-06-22T04:39:19;22.00;99.90
25914;DHT22;13718;50.922;5.346;2023-06-22T04:41:45;21.90;99.90
25914;DHT22;13718;50.922;5.346;2023-06-22T04:44:15;21.60;99.90
25914;DHT22;13718;50.922;5.346;2023-06-22T04:46:51;21.40;99.90
25914;DHT22;13718;50.922;5.346;2023-06-22T04:49:25;21.20;99.90
25914;DHT22;13718;50.922;5.346;2023-06-22T04:51:59;21.00;99.90
25914;DHT22;13718;50.922;5.346;2023-06-22T04:54:25;20.80;99.90
25914;DHT22;13718;50.922;5.346;2023-06-22T04:56:50;20.80;99.90
25914;DHT22;13718;50.922;5.346;2023-06-22T04:59:24;20.90;99.90
25914;DHT22;13718;50.922;5.346;2023-06-22T05:01:55;20.80;99.90
25914;DHT22;13718;50.922;5.346;2023-06-22T05:04:22;20.50;99.90
25914;DHT22;13718;50.922;5.346;2023-06-22T05:06:51;20.00;99.90
25914;DHT22;13718;50.922;5.346;2023-06-22T05:09:17;19.80;99.90
25914;DHT22;13718;50.922;5.346;2023-06-22T05:11:43;19.60;99.90
25914;DHT22;13718;50.922;5.346;2023-06-22T05:14:09;19.50;99.90
25914;DHT22;13718;50.922;5.346;2023-06-22T05:16:35;19.60;99.90
25914;DHT22;13718;50.922;5.346;2023-06-22T05:19:01;19.50;99.90
25914;DHT22;13718;50.922;5.346;2023-06-22T05:21:29;19.30;99.90
25914;DHT22;13718;50.922;5.346;2023-06-22T05:23:55;19.20;99.90
25914;DHT22;13718;50.922;5.346;2023-06-22T05:26:21;19.20;99.90
25914;DHT22;13718;50.922;5.346;2023-06-22T05:28:47;19.10;99.90
25914;DHT22;13718;50.922;5.346;2023-06-22T05:31:14;19.00;99.90
25914;DHT22;13718;50.922;5.346;2023-06-22T05:33:41;19.00;99.90
25914;DHT22;13718;50.922;5.346;2023-06-22T05:36:07;19.10;99.90
25914;DHT22;13718;50.922;5.346;2023-06-22T05:38:33;19.10;99.90
25914;DHT22;13718;50.922;5.346;2023-06-22T05:40:58;19.10;99.90
25914;DHT22;13718;50.922;5.346;2023-06-22T05:43:24;19.20;99.90
25914;DHT22;13718;50.922;5.346;2023-06-22T05:45:50;19.30;99.90
25914;DHT22;13718;50.922;5.346;2023-06-22T05:48:15;19.30;99.90
25914;DHT22;13718;50.922;5.346;2023-06-22T05:50:41;19.30;99.90
25914;DHT22;13718;50.922;5.346;2023-06-22T05:53:07;19.40;99.90
25914;DHT22;13718;50.922;5.346;2023-06-22T05:55:33;19.40;99.90
25914;DHT22;13718;50.922;5.346;2023-06-22T05:57:58;19.50;99.90
25914;DHT22;13718;50.922;5.346;2023-06-22T06:00:24;19.50;99.90
25914;DHT22;13718;50.922;5.346;2023-06-22T06:02:50;19.70;99.90
25914;DHT22;13718;50.922;5.346;2023-06-22T06:05:16;19.70;99.90
25914;DHT22;13718;50.922;5.346;2023-06-22T06:07:42;19.70;99.90
25914;DHT22;13718;50.922;5.346;2023-06-22T06:10:09;19.80;99.90
25914;DHT22;13718;50.922;5.346;2023-06-22T06:12:34;19.90;99.90
25914;DHT22;13718;50.922;5.346;2023-06-22T06:15:01;19.90;99.90
25914;DHT22;13718;50.922;5.346;2023-06-22T06:17:27;19.90;99.90
25914;DHT22;13718;50.922;5.346;2023-06-22T06:19:52;19.90;99.90
25914;DHT22;13718;50.922;5.346;2023-06-22T06:22:18;20.00;99.90
25914;DHT22;13718;50.922;5.346;2023-06-22T06:24:45;20.00;99.90
25914;DHT22;13718;50.922;5.346;2023-06-22T06:27:11;20.00;99.90
25914;DHT22;13718;50.922;5.346;2023-06-22T06:29:36;20.00;99.90
25914;DHT22;13718;50.922;5.346;2023-06-22T06:32:02;20.10;99.90
25914;DHT22;13718;50.922;5.346;2023-06-22T06:34:28;20.20;99.90
25914;DHT22;13718;50.922;5.346;2023-06-22T06:36:53;20.10;99.90
25914;DHT22;13718;50.922;5.346;2023-06-22T06:39:19;20.00;99.90
25914;DHT22;13718;50.922;5.346;2023-06-22T06:41:45;20.10;99.90
25914;DHT22;13718;50.922;5.346;2023-06-22T06:44:11;20.00;99.90
25914;DHT22;13718;50.922;5.346;2023-06-22T06:46:37;20.00;99.90
25914;DHT22;13718;50.922;5.346;2023-06-22T06:49:03;19.90;99.90
25914;DHT22;13718;50.922;5.346;2023-06-22T06:51:28;19.90;99.90
25914;DHT22;13718;50.922;5.346;2023-06-22T06:53:54;20.00;99.90
25914;DHT22;13718;50.922;5.346;2023-06-22T06:56:20;20.20;99.90
25914;DHT22;13718;50.922;5.346;2023-06-22T06:58:46;20.40;99.90
25914;DHT22;13718;50.922;5.346;2023-06-22T07:01:12;20.50;99.90
25914;DHT22;13718;50.922;5.346;2023-06-22T07:03:38;20.50;99.90
25914;DHT22;13718;50.922;5.346;2023-06-22T07:06:04;20.90;99.90
25914;DHT22;13718;50.922;5.346;2023-06-22T07:08:29;21.30;99.90
25914;DHT22;13718;50.922;5.346;2023-06-22T07:10:56;22.20;99.90
25914;DHT22;13718;50.922;5.346;2023-06-22T07:13:22;23.30;99.90
25914;DHT22;13718;50.922;5.346;2023-06-22T07:15:47;23.80;99.90
25914;DHT22;13718;50.922;5.346;2023-06-22T07:18:13;24.00;99.90
25914;DHT22;13718;50.922;5.346;2023-06-22T07:20:39;24.20;99.90
25914;DHT22;13718;50.922;5.346;2023-06-22T07:23:07;23.70;99.90
25914;DHT22;13718;50.922;5.346;2023-06-22T07:25:32;23.10;99.90
25914;DHT22;13718;50.922;5.346;2023-06-22T07:28:06;22.90;99.90
25914;DHT22;13718;50.922;5.346;2023-06-22T07:30:33;22.60;99.90
25914;DHT22;13718;50.922;5.346;2023-06-22T07:32:59;22.50;99.90
25914;DHT22;13718;50.922;5.346;2023-06-22T07:35:30;22.60;99.90
25914;DHT22;13718;50.922;5.346;2023-06-22T07:37:56;22.60;99.90
25914;DHT22;13718;50.922;5.346;2023-06-22T07:40:22;22.80;99.90
25914;DHT22;13718;50.922;5.346;2023-06-22T07:42:47;22.70;99.90
25914;DHT22;13718;50.922;5.346;2023-06-22T07:45:17;22.60;99.90
25914;DHT22;13718;50.922;5.346;2023-06-22T07:47:43;22.60;99.90
25914;DHT22;13718;50.922;5.346;2023-06-22T07:50:09;22.50;99.90
25914;DHT22;13718;50.922;5.346;2023-06-22T07:52:35;22.40;99.90
25914;DHT22;13718;50.922;5.346;2023-06-22T07:55:01;22.50;99.90
25914;DHT22;13718;50.922;5.346;2023-06-22T07:57:27;22.60;99.90
25914;DHT22;13718;50.922;5.346;2023-06-22T08:00:02;22.70;99.90
25914;DHT22;13718;50.922;5.346;2023-06-22T08:02:29;22.90;99.90
25914;DHT22;13718;50.922;5.346;2023-06-22T08:04:55;23.00;99.90
25914;DHT22;13718;50.922;5.346;2023-06-22T08:07:21;23.30;99.90
25914;DHT22;13718;50.922;5.346;2023-06-22T08:09:47;23.60;99.90
25914;DHT22;13718;50.922;5.346;2023-06-22T08:12:13;23.80;99.90
25914;DHT22;13718;50.922;5.346;2023-06-22T08:14:41;24.00;99.90
25914;DHT22;13718;50.922;5.346;2023-06-22T08:17:07;24.60;99.90
25914;DHT22;13718;50.922;5.346;2023-06-22T08:19:32;25.40;99.90
25914;DHT22;13718;50.922;5.346;2023-06-22T08:21:58;25.60;99.90
25914;DHT22;13718;50.922;5.346;2023-06-22T08:24:24;25.70;99.90
25914;DHT22;13718;50.922;5.346;2023-06-22T08:26:51;25.70;99.90
25914;DHT22;13718;50.922;5.346;2023-06-22T08:29:17;25.70;99.90
25914;DHT22;13718;50.922;5.346;2023-06-22T08:31:43;25.80;99.90
25914;DHT22;13718;50.922;5.346;2023-06-22T08:34:08;25.90;99.90
25914;DHT22;13718;50.922;5.346;2023-06-22T08:36:34;26.10;99.90
25914;DHT22;13718;50.922;5.346;2023-06-22T08:39:07;26.30;99.90
25914;DHT22;13718;50.922;5.346;2023-06-22T08:41:33;26.50;99.90
25914;DHT22;13718;50.922;5.346;2023-06-22T08:43:59;26.70;99.90
25914;DHT22;13718;50.922;5.346;2023-06-22T08:46:25;27.10;99.90
25914;DHT22;13718;50.922;5.346;2023-06-22T08:48:58;27.50;99.90
25914;DHT22;13718;50.922;5.346;2023-06-22T08:51:24;27.60;99.90
25914;DHT22;13718;50.922;5.346;2023-06-22T08:53:50;27.60;99.90
25914;DHT22;13718;50.922;5.346;2023-06-22T08:56:16;27.70;99.90
25914;DHT22;13718;50.922;5.346;2023-06-22T08:58:41;27.50;99.90
25914;DHT22;13718;50.922;5.346;2023-06-22T09:01:07;27.20;99.90
25914;DHT22;13718;50.922;5.346;2023-06-22T09:03:32;26.70;99.90
25914;DHT22;13718;50.922;5.346;2023-06-22T09:06:01;26.60;99.90
25914;DHT22;13718;50.922;5.346;2023-06-22T09:08:27;26.40;99.90
25914;DHT22;13718;50.922;5.346;2023-06-22T09:10:52;26.30;99.90
25914;DHT22;13718;50.922;5.346;2023-06-22T09:13:18;26.30;99.90
25914;DHT22;13718;50.922;5.346;2023-06-22T09:15:44;26.10;99.90
25914;DHT22;13718;50.922;5.346;2023-06-22T09:18:13;25.90;99.90
25914;DHT22;13718;50.922;5.346;2023-06-22T09:20:39;25.90;99.90
25914;DHT22;13718;50.922;5.346;2023-06-22T09:23:04;26.00;99.90
25914;DHT22;13718;50.922;5.346;2023-06-22T09:25:30;26.00;99.90
25914;DHT22;13718;50.922;5.346;2023-06-22T09:27:56;25.90;99.90
25914;DHT22;13718;50.922;5.346;2023-06-22T09:30:21;25.80;99.90
25914;DHT22;13718;50.922;5.346;2023-06-22T09:32:47;25.80;99.90
25914;DHT22;13718;50.922;5.346;2023-06-22T09:35:13;25.80;99.90
25914;DHT22;13718;50.922;5.346;2023-06-22T09:37:39;25.60;99.90
25914;DHT22;13718;50.922;5.346;2023-06-22T09:40:06;25.60;99.90
25914;DHT22;13718;50.922;5.346;2023-06-22T09:42:36;25.50;99.90
25914;DHT22;13718;50.922;5.346;2023-06-22T09:45:02;25.40;99.90
25914;DHT22;13718;50.922;5.346;2023-06-22T09:47:29;25.30;99.90
25914;DHT22;13718;50.922;5.346;2023-06-22T09:49:54;25.30;99.90
25914;DHT22;13718;50.922;5.346;2023-06-22T09:52:21;25.40;99.90
25914;DHT22;13718;50.922;5.346;2023-06-22T09:54:47;25.30;99.90
25914;DHT22;13718;50.922;5.346;2023-06-22T09:57:13;25.00;99.90
25914;DHT22;13718;50.922;5.346;2023-06-22T09:59:39;24.70;99.90
25914;DHT22;13718;50.922;5.346;2023-06-22T10:02:07;24.40;99.90
25914;DHT22;13718;50.922;5.346;2023-06-22T10:04:36;24.30;99.90
25914;DHT22;13718;50.922;5.346;2023-06-22T10:07:02;24.10;99.90
25914;DHT22;13718;50.922;5.346;2023-06-22T10:09:28;24.00;99.90
25914;DHT22;13718;50.922;5.346;2023-06-22T10:11:53;23.80;99.90
25914;DHT22;13718;50.922;5.346;2023-06-22T10:14:19;23.60;99.90
25914;DHT22;13718;50.922;5.346;2023-06-22T10:16:45;23.40;99.90
25914;DHT22;13718;50.922;5.346;2023-06-22T10:19:10;23.10;99.90
25914;DHT22;13718;50.922;5.346;2023-06-22T10:21:36;22.90;99.90
25914;DHT22;13718;50.922;5.346;2023-06-22T10:24:02;22.70;99.90
25914;DHT22;13718;50.922;5.346;2023-06-22T10:26:35;22.40;99.90
25914;DHT22;13718;50.922;5.346;2023-06-22T10:29:02;22.20;99.90
25914;DHT22;13718;50.922;5.346;2023-06-22T10:31:27;22.00;99.90
25914;DHT22;13718;50.922;5.346;2023-06-22T10:33:54;21.80;99.90
25914;DHT22;13718;50.922;5.346;2023-06-22T10:36:20;21.60;99.90
25914;DHT22;13718;50.922;5.346;2023-06-22T10:38:46;21.50;99.90
25914;DHT22;13718;50.922;5.346;2023-06-22T10:41:13;21.40;99.90
25914;DHT22;13718;50.922;5.346;2023-06-22T10:43:39;21.40;99.90
25914;DHT22;13718;50.922;5.346;2023-06-22T10:46:05;21.40;99.90
25914;DHT22;13718;50.922;5.346;2023-06-22T10:48:31;21.40;99.90
25914;DHT22;13718;50.922;5.346;2023-06-22T10:50:57;21.30;99.90
25914;DHT22;13718;50.922;5.346;2023-06-22T10:53:22;21.30;99.90
25914;DHT22;13718;50.922;5.346;2023-06-22T10:55:48;21.40;99.90
25914;DHT22;13718;50.922;5.346;2023-06-22T10:58:18;21.40;99.90
25914;DHT22;13718;50.922;5.346;2023-06-22T11:00:44;21.30;99.90
25914;DHT22;13718;50.922;5.346;2023-06-22T11:03:10;21.30;99.90
25914;DHT22;13718;50.922;5.346;2023-06-22T11:05:36;21.20;99.90
25914;DHT22;13718;50.922;5.346;2023-06-22T11:08:01;21.10;99.90
25914;DHT22;13718;50.922;5.346;2023-06-22T11:10:27;21.10;99.90
25914;DHT22;13718;50.922;5.346;2023-06-22T11:12:52;21.10;99.90
25914;DHT22;13718;50.922;5.346;2023-06-22T11:15:18;21.20;99.90
25914;DHT22;13718;50.922;5.346;2023-06-22T11:17:44;21.40;99.90
25914;DHT22;13718;50.922;5.346;2023-06-22T11:20:11;21.60;99.90
25914;DHT22;13718;50.922;5.346;2023-06-22T11:22:38;21.80;99.90
25914;DHT22;13718;50.922;5.346;2023-06-22T11:25:05;22.00;99.90
25914;DHT22;13718;50.922;5.346;2023-06-22T11:27:30;22.10;99.90
25914;DHT22;13718;50.922;5.346;2023-06-22T11:29:56;22.00;99.90
25914;DHT22;13718;50.922;5.346;2023-06-22T11:32:22;21.70;99.90
25914;DHT22;13718;50.922;5.346;2023-06-22T11:34:48;21.80;99.90
25914;DHT22;13718;50.922;5.346;2023-06-22T11:37:14;21.90;99.90
25914;DHT22;13718;50.922;5.346;2023-06-22T11:39:41;22.10;99.90
25914;DHT22;13718;50.922;5.346;2023-06-22T11:42:07;22.10;99.90
25914;DHT22;13718;50.922;5.346;2023-06-22T11:44:33;22.00;99.90
25914;DHT22;13718;50.922;5.346;2023-06-22T11:46:59;22.00;99.90
25914;DHT22;13718;50.922;5.346;2023-06-22T11:49:26;21.90;99.90
25914;DHT22;13718;50.922;5.346;2023-06-22T11:51:52;21.80;99.90
25914;DHT22;13718;50.922;5.346;2023-06-22T11:54:18;21.70;99.90
25914;DHT22;13718;50.922;5.346;2023-06-22T11:56:43;21.80;99.90
25914;DHT22;13718;50.922;5.346;2023-06-22T11:59:09;21.70;99.90
25914;DHT22;13718;50.922;5.346;2023-06-22T12:01:34;21.60;99.90
25914;DHT22;13718;50.922;5.346;2023-06-22T12:04:00;21.60;99.90
25914;DHT22;13718;50.922;5.346;2023-06-22T12:06:26;21.30;99.90
25914;DHT22;13718;50.922;5.346;2023-06-22T12:08:51;21.10;99.90
25914;DHT22;13718;50.922;5.346;2023-06-22T12:11:17;20.80;99.90
25914;DHT22;13718;50.922;5.346;2023-06-22T12:13:42;20.80;99.90
25914;DHT22;13718;50.922;5.346;2023-06-22T12:16:08;20.70;99.90
25914;DHT22;13718;50.922;5.346;2023-06-22T12:18:34;20.70;99.90
25914;DHT22;13718;50.922;5.346;2023-06-22T12:20:59;20.70;99.90
25914;DHT22;13718;50.922;5.346;2023-06-22T12:23:25;20.70;99.90
25914;DHT22;13718;50.922;5.346;2023-06-22T12:25:50;20.50;99.90
25914;DHT22;13718;50.922;5.346;2023-06-22T12:28:16;20.50;99.90
25914;DHT22;13718;50.922;5.346;2023-06-22T12:30:41;20.50;99.90
25914;DHT22;13718;50.922;5.346;2023-06-22T12:33:07;20.40;99.90
25914;DHT22;13718;50.922;5.346;2023-06-22T12:35:33;20.50;99.90
25914;DHT22;13718;50.922;5.346;2023-06-22T12:37:59;20.50;99.90
25914;DHT22;13718;50.922;5.346;2023-06-22T12:40:25;20.50;99.90
25914;DHT22;13718;50.922;5.346;2023-06-22T12:42:50;20.40;99.90
25914;DHT22;13718;50.922;5.346;2023-06-22T12:45:16;20.40;99.90
25914;DHT22;13718;50.922;5.346;2023-06-22T12:47:41;20.40;99.90
25914;DHT22;13718;50.922;5.346;2023-06-22T12:50:08;20.40;99.90
25914;DHT22;13718;50.922;5.346;2023-06-22T12:52:36;20.30;99.90
25914;DHT22;13718;50.922;5.346;2023-06-22T12:55:04;20.30;99.90
25914;DHT22;13718;50.922;5.346;2023-06-22T12:57:30;20.40;99.90
25914;DHT22;13718;50.922;5.346;2023-06-22T12:59:56;20.40;99.90
25914;DHT22;13718;50.922;5.346;2023-06-22T13:02:23;20.40;99.90
25914;DHT22;13718;50.922;5.346;2023-06-22T13:04:49;20.40;99.90
25914;DHT22;13718;50.922;5.346;2023-06-22T13:07:15;20.30;99.90
25914;DHT22;13718;50.922;5.346;2023-06-22T13:09:40;20.10;99.90
25914;DHT22;13718;50.922;5.346;2023-06-22T13:12:06;20.10;99.90
25914;DHT22;13718;50.922;5.346;2023-06-22T13:14:32;19.90;99.90
25914;DHT22;13718;50.922;5.346;2023-06-22T13:16:57;19.90;99.90
25914;DHT22;13718;50.922;5.346;2023-06-22T13:19:23;20.00;99.90
25914;DHT22;13718;50.922;5.346;2023-06-22T13:21:50;20.00;99.90
25914;DHT22;13718;50.922;5.346;2023-06-22T13:24:15;20.00;99.90
25914;DHT22;13718;50.922;5.346;2023-06-22T13:26:41;19.90;99.90
25914;DHT22;13718;50.922;5.346;2023-06-22T13:29:07;19.80;99.90
25914;DHT22;13718;50.922;5.346;2023-06-22T13:31:33;19.80;99.90
25914;DHT22;13718;50.922;5.346;2023-06-22T13:33:59;19.80;99.90
25914;DHT22;13718;50.922;5.346;2023-06-22T13:36:24;19.80;99.90
25914;DHT22;13718;50.922;5.346;2023-06-22T13:38:50;19.70;99.90
25914;DHT22;13718;50.922;5.346;2023-06-22T13:41:16;19.60;99.90
25914;DHT22;13718;50.922;5.346;2023-06-22T13:43:41;19.70;99.90
25914;DHT22;13718;50.922;5.346;2023-06-22T13:46:07;19.60;99.90
25914;DHT22;13718;50.922;5.346;2023-06-22T13:48:33;19.60;99.90
25914;DHT22;13718;50.922;5.346;2023-06-22T13:50:59;19.50;99.90
25914;DHT22;13718;50.922;5.346;2023-06-22T13:53:25;19.50;99.90
25914;DHT22;13718;50.922;5.346;2023-06-22T13:55:51;19.50;99.90
25914;DHT22;13718;50.922;5.346;2023-06-22T13:58:17;19.50;99.90
25914;DHT22;13718;50.922;5.346;2023-06-22T14:00:45;19.60;99.90
25914;DHT22;13718;50.922;5.346;2023-06-22T14:03:10;19.50;99.90
25914;DHT22;13718;50.922;5.346;2023-06-22T14:05:36;19.50;99.90
25914;DHT22;13718;50.922;5.346;2023-06-22T14:08:01;19.40;99.90
25914;DHT22;13718;50.922;5.346;2023-06-22T14:10:27;19.40;99.90
25914;DHT22;13718;50.922;5.346;2023-06-22T14:12:53;19.40;99.90
25914;DHT22;13718;50.922;5.346;2023-06-22T14:15:19;19.40;99.90
25914;DHT22;13718;50.922;5.346;2023-06-22T14:17:44;19.40;99.90
25914;DHT22;13718;50.922;5.346;2023-06-22T14:20:10;19.40;99.90
25914;DHT22;13718;50.922;5.346;2023-06-22T14:22:36;19.30;99.90
25914;DHT22;13718;50.922;5.346;2023-06-22T14:25:02;19.30;99.90
25914;DHT22;13718;50.922;5.346;2023-06-22T14:27:27;19.20;99.90
25914;DHT22;13718;50.922;5.346;2023-06-22T14:29:53;19.20;99.90
25914;DHT22;13718;50.922;5.346;2023-06-22T14:32:18;19.20;99.90
25914;DHT22;13718;50.922;5.346;2023-06-22T14:34:44;19.20;99.90
25914;DHT22;13718;50.922;5.346;2023-06-22T14:37:10;19.20;99.90
25914;DHT22;13718;50.922;5.346;2023-06-22T14:39:36;19.10;99.90
25914;DHT22;13718;50.922;5.346;2023-06-22T14:42:02;19.00;99.90
25914;DHT22;13718;50.922;5.346;2023-06-22T14:44:29;19.10;99.90
25914;DHT22;13718;50.922;5.346;2023-06-22T14:46:55;19.00;99.90
25914;DHT22;13718;50.922;5.346;2023-06-22T14:49:21;19.00;99.90
25914;DHT22;13718;50.922;5.346;2023-06-22T14:51:46;19.00;99.90
25914;DHT22;13718;50.922;5.346;2023-06-22T14:54:15;19.00;99.90
25914;DHT22;13718;50.922;5.346;2023-06-22T14:56:40;18.90;99.90
25914;DHT22;13718;50.922;5.346;2023-06-22T14:59:06;18.80;99.90
25914;DHT22;13718;50.922;5.346;2023-06-22T15:01:32;18.80;99.90
25914;DHT22;13718;50.922;5.346;2023-06-22T15:03:57;18.80;99.90
25914;DHT22;13718;50.922;5.346;2023-06-22T15:06:23;18.80;99.90
25914;DHT22;13718;50.922;5.346;2023-06-22T15:08:49;18.80;99.90
25914;DHT22;13718;50.922;5.346;2023-06-22T15:11:14;18.80;99.90
25914;DHT22;13718;50.922;5.346;2023-06-22T15:13:41;18.70;99.90
25914;DHT22;13718;50.922;5.346;2023-06-22T15:16:08;18.70;99.90
25914;DHT22;13718;50.922;5.346;2023-06-22T15:18:34;18.70;99.90
25914;DHT22;13718;50.922;5.346;2023-06-22T15:21:03;18.60;99.90
25914;DHT22;13718;50.922;5.346;2023-06-22T15:23:30;18.60;99.90
25914;DHT22;13718;50.922;5.346;2023-06-22T15:25:56;18.60;99.90
25914;DHT22;13718;50.922;5.346;2023-06-22T15:28:22;18.60;99.90